Stations météo

Publicité
Nimes/Courbessac, France (7645): Température de l'air & dewpoint: 18.01.2021 07:00:00 - 24.01.2021 07:00:00 (CET)Nimes/Courbessac, France (7645): Température de l'air 5cm: 18.01.2021 07:00:00 - 24.01.2021 07:00:00 (CET)Nimes/Courbessac, France (7645): Température de l'air -20cm: 18.01.2021 07:00:00 - 24.01.2021 07:00:00 (CET)Nimes/Courbessac, France (7645): Vitesse du vent & gusts: 18.01.2021 07:00:00 - 24.01.2021 07:00:00 (CET)Nimes/Courbessac, France (7645): Direction du vent: 18.01.2021 07:00:00 - 24.01.2021 07:00:00 (CET)Nimes/Courbessac, France (7645): reduced air pressure: 18.01.2021 07:00:00 - 24.01.2021 07:00:00 (CET)Nimes/Courbessac, France (7645): Ensoleillement: 18.01.2021 07:00:00 - 24.01.2021 07:00:00 (CET)Nimes/Courbessac, France (7645): Quantités de précipitations: 18.01.2021 07:00:00 - 24.01.2021 07:00:00 (CET)
Date & Time tt [°C] td [°C] tt 5cm [°C] tt -20cm [°C] ff [km/h] ff [knt] fx [km/h] fx [knt] dd ppp [hPa] sd [min] rr [mm]
24.01.2021 07:00:00 4,5 2,5 3,2 7,1 9 5 22 12 NNW 1000,5 0 0,0
24.01.2021 06:00:00 4,9 3,6 4,1 7,1 9 5 23 12 NNW 999,8 0 0,0
24.01.2021 05:00:00 4,9 3,9 4,5 7,1 8 4 15 8 N 999,8 0 0,0
24.01.2021 04:00:00 5,1 4,2 4,7 7,2 9 5 17 9 NNW 999,7 0 0,4
24.01.2021 03:00:00 5,5 4,6 5,0 7,2 3 2 6 3 NW 999,8 0 0,2
24.01.2021 02:00:00 5,7 4,2 4,8 7,2 4 2 10 5 SSW 999,6 0 0,6
24.01.2021 01:00:00 5,6 3,9 4,7 7,3 2 1 8 4 E 1000,0 0 0,2
24.01.2021 00:00:00 6,1 3,3 5,1 7,3 8 4 12 6 NE 1000,5 0 0,0
23.01.2021 23:00:00 6,1 2,7 5,5 7,4 0 0 13 7 N 1000,0 0 0,0
23.01.2021 22:00:00 6,1 2,5 5,5 7,5 4 2 9 5 N 1000,4 0 0,0
23.01.2021 21:00:00 7,2 2,1 6,3 7,6 2 1 19 10 ENE 1000,6 0 0,0
23.01.2021 20:00:00 7,7 1,7 6,4 7,6 9 5 22 12 S 1001,5 0 0,0
23.01.2021 19:00:00 8,6 1,7 7,8 7,7 13 7 26 14 WSW 1000,9 0 0,0
23.01.2021 18:00:00 9,5 2,1 8,5 7,7 14 8 50 27 WSW 1001,3 6 0,0
23.01.2021 17:00:00 11,2 2,5 10,6 7,6 21 11 43 23 WSW 1001,3 50 0,0
23.01.2021 16:00:00 12,1 3,1 11,5 7,4 21 11 39 21 W 1001,6 11 0,0
23.01.2021 15:00:00 11,3 3,8 11,3 7,1 10 6 24 13 SW 1001,9 0 0,0
23.01.2021 14:00:00 11,0 4,2 11,3 6,8 14 8 32 18 SW 1002,2 0 0,0
23.01.2021 13:00:00 11,0 4,4 12,4 6,5 14 7 24 13 SSW 1003,6 35 0,0
23.01.2021 12:00:00 9,8 4,0 8,1 6,3 10 6 19 11 SW 1004,5 20 0,0
23.01.2021 11:00:00 6,2 2,8 5,0 6,3 0 0 5 3 N 1005,5 16 0,0
23.01.2021 10:00:00 3,6 2,1 2,5 6,4 0 0 6 4 N 1005,3 0 0,0
23.01.2021 09:00:00 2,9 1,4 -0,5 6,5 0 0 14 8 N 1005,5 25 0,0
23.01.2021 08:00:00 0,5 -0,5 -1,4 6,7 7 4 13 7 NNW 1005,8 0 0,0
23.01.2021 07:00:00 0,5 -0,6 -1,2 7,0 4 2 7 4 N 1005,7 0 0,0
23.01.2021 06:00:00 1,6 0,0 -0,2 7,1 5 3 12 6 NW 1005,9 0 0,0
23.01.2021 05:00:00 1,7 -0,1 -0,6 7,4 3 2 7 4 NNW 1006,1 0 0,0
23.01.2021 04:00:00 3,3 0,0 0,7 7,6 5 3 11 6 WNW 1005,6 0 0,0
23.01.2021 03:00:00 5,1 0,1 3,4 7,8 6 4 12 7 WNW 1005,5 0 0,0
23.01.2021 02:00:00 5,2 -0,6 3,2 8,0 7 4 14 8 WNW 1005,4 0 0,0
23.01.2021 01:00:00 5,5 -0,6 1,7 8,3 6 3 16 8 NW 1005,0 0 0,0
23.01.2021 00:00:00 4,4 -0,6 1,7 8,5 6 4 12 7 NNW 1004,8 0 0,0
22.01.2021 23:00:00 6,8 -1,4 4,8 8,7 8 4 21 12 NW 1003,8 0 0,0
22.01.2021 22:00:00 7,6 -1,1 6,2 8,9 11 6 30 16 NW 1002,7 0 0,0
22.01.2021 21:00:00 8,8 -0,3 7,7 9,1 11 6 37 20 WNW 1001,1 0 0,0
22.01.2021 20:00:00 10,0 -0,5 8,9 9,2 22 12 53 29 NNW 998,9 0 0,0
22.01.2021 19:00:00 10,8 2,6 9,7 9,3 24 13 57 31 WNW 996,1 0 0,0
22.01.2021 18:00:00 10,8 5,7 9,7 9,3 9 5 22 12 W 994,4 0 0,0
22.01.2021 17:00:00 10,5 5,9 9,7 9,3 8 4 23 12 W 993,6 0 0,0
22.01.2021 16:00:00 10,4 6,2 9,5 9,2 14 7 31 17 W 993,0 0 0,2
22.01.2021 15:00:00 10,6 7,8 9,9 9,1 14 8 33 18 W 991,9 0 0,0
22.01.2021 14:00:00 11,9 9,8 12,0 8,9 20 11 37 20 WSW 992,6 0 0,0
22.01.2021 13:00:00 12,5 11,4 11,9 8,7 6 3 41 22 SSW 992,5 0 2,4
22.01.2021 12:00:00 13,4 10,9 13,5 8,5 19 10 40 22 SSE 994,6 0 0,0
22.01.2021 11:00:00 14,1 11,1 12,3 8,3 28 15 45 24 SE 995,6 27 0,0
22.01.2021 10:00:00 11,9 9,6 11,2 8,2 18 10 36 19 ESE 996,4 0 0,0
22.01.2021 09:00:00 11,1 9,4 10,0 8,2 18 10 34 18 ESE 997,0 0 0,0
22.01.2021 08:00:00 10,5 8,4 9,8 8,1 9 5 19 10 NE 998,7 0 0,0
22.01.2021 07:00:00 10,4 8,5 9,6 8,1 10 5 17 9 NE 999,7 0 0,0
22.01.2021 06:00:00 10,5 8,9 9,3 8,1 11 6 21 11 NE 1001,0 0 0,0
22.01.2021 05:00:00 10,3 9,4 7,8 8,2 10 6 16 9 ENE 1002,1 0 0,0
22.01.2021 04:00:00 8,8 8,2 7,1 8,4 9 5 13 7 E 1003,4 0 0,0
22.01.2021 03:00:00 9,0 8,7 4,7 8,5 7 4 13 7 ENE 1004,4 0 0,0
22.01.2021 02:00:00 7,8 7,4 4,4 8,6 4 2 8 4 NE 1004,7 0 0,0
22.01.2021 01:00:00 8,5 7,9 5,4 8,8 6 3 11 6 E 1005,4 0 0,0
22.01.2021 00:00:00 8,9 8,3 5,7 8,9 0 0 13 7 N 1006,3 0 0,0
21.01.2021 23:00:00 9,5 8,7 8,0 9,1 10 5 19 11 E 1006,1 0 0,0
21.01.2021 22:00:00 9,8 9,2 6,7 9,2 10 5 13 7 ENE 1006,1 0 0,0
21.01.2021 21:00:00 9,5 8,6 7,0 9,2 3 2 11 6 NW 1007,3 0 0,0
21.01.2021 20:00:00 11,0 9,6 10,5 9,3 9 5 21 12 SSE 1007,2 0 0,0
21.01.2021 19:00:00 11,5 9,4 11,1 9,3 11 6 26 14 SE 1007,3 0 0,0
21.01.2021 18:00:00 11,8 9,9 11,3 9,3 14 8 32 18 SE 1006,7 0 0,0
21.01.2021 17:00:00 12,3 9,8 12,0 9,2 18 10 39 21 SSE 1006,8 0 0,0
21.01.2021 16:00:00 13,2 9,8 13,0 9,1 21 11 35 19 SSE 1007,1 0 0,0
21.01.2021 15:00:00 13,3 10,1 13,2 8,9 16 9 34 18 SE 1007,4 0 0,0
21.01.2021 14:00:00 13,9 10,3 13,8 8,7 21 11 40 21 ESE 1008,2 5 0,0
21.01.2021 13:00:00 13,9 10,3 13,8 8,5 23 12 33 18 SE 1008,9 0 0,0
21.01.2021 12:00:00 13,0 10,4 13,1 8,4 16 9 26 14 SE 1010,1 0 0,0
21.01.2021 11:00:00 12,6 10,0 11,8 8,2 14 7 26 14 SE 1010,7 0 0,0
21.01.2021 10:00:00 11,1 9,0 10,7 8,2 8 5 14 7 E 1010,4 21 0,0
21.01.2021 09:00:00 10,0 8,6 8,9 8,2 9 5 22 12 E 1009,9 20 0,0
21.01.2021 08:00:00 9,7 8,1 9,0 8,2 12 7 22 12 E 1009,7 0 0,0
21.01.2021 07:00:00 10,4 9,0 10,1 8,2 8 4 24 13 NE 1009,6 0 0,0
21.01.2021 06:00:00 10,6 9,5 10,0 8,1 17 9 27 14 E 1008,6 0 0,0
21.01.2021 05:00:00 10,7 9,6 10,1 8,1 15 8 24 13 E 1008,1 0 0,0
21.01.2021 04:00:00 11,1 9,5 10,4 8,1 14 8 24 13 SE 1008,5 0 0,0
21.01.2021 03:00:00 11,4 9,8 10,4 8,0 16 9 34 18 SSE 1008,7 0 0,4
21.01.2021 02:00:00 11,4 9,3 11,0 8,0 19 10 38 20 SE 1008,3 0 0,0
21.01.2021 01:00:00 11,4 8,8 10,9 7,9 25 14 40 21 SE 1008,1 0 0,0
21.01.2021 00:00:00 11,5 9,6 11,0 7,8 26 14 45 24 SSE 1008,8 0 0,0
20.01.2021 23:00:00 11,4 10,5 9,5 7,7 27 15 46 25 SSE 1008,9 0 2,6
20.01.2021 22:00:00 10,1 8,9 9,4 7,7 33 18 59 32 SE 1008,5 0 2,0
20.01.2021 21:00:00 11,7 7,8 11,0 7,7 38 20 64 34 SE 1008,6 0 0,0
20.01.2021 20:00:00 11,9 8,6 11,7 7,6 35 19 58 31 SE 1009,4 0 0,0
20.01.2021 19:00:00 12,0 8,5 11,7 7,5 30 16 57 31 SE 1010,1 0 0,0
20.01.2021 18:00:00 12,1 8,8 11,9 7,4 32 17 56 30 SE 1010,9 0 0,0
20.01.2021 17:00:00 12,3 8,4 12,1 7,2 34 18 56 30 SE 1011,5 0 0,0
20.01.2021 16:00:00 12,6 8,1 12,5 7,0 36 19 64 34 SE 1012,1 0 0,0
20.01.2021 15:00:00 12,6 8,1 12,4 6,8 40 22 61 33 SSE 1012,3 1 0,0
20.01.2021 14:00:00 13,4 8,0 13,2 6,5 34 18 66 36 SSE 1013,0 20 0,0
20.01.2021 13:00:00 12,8 8,5 12,1 6,3 33 18 56 30 SSE 1014,2 0 0,0
20.01.2021 12:00:00 12,1 8,8 10,2 6,1 29 16 51 28 SE 1015,3 0 0,0
20.01.2021 11:00:00 11,1 9,0 10,1 5,9 18 10 38 21 SSE 1016,0 0 0,2
20.01.2021 10:00:00 11,1 8,8 10,4 5,8 18 10 30 16 SE 1016,1 0 0,0
20.01.2021 09:00:00 10,4 7,8 9,9 5,7 13 7 30 16 ESE 1016,2 0 0,0
20.01.2021 08:00:00 10,8 7,8 8,2 5,6 21 11 32 17 SE 1016,3 0 0,0
20.01.2021 07:00:00 8,5 7,9 7,5 5,5 9 5 17 9 ESE 1016,6 0 0,2
20.01.2021 06:00:00 7,9 6,8 7,1 5,5 12 6 19 10 E 1016,8 0 0,0
20.01.2021 05:00:00 7,5 6,1 6,8 5,4 10 6 19 10 ENE 1017,2 0 0,0
20.01.2021 04:00:00 7,5 6,3 6,7 5,4 12 6 16 8 E 1017,7 0 0,0
20.01.2021 03:00:00 8,0 6,5 7,1 5,2 11 6 22 12 E 1018,1 0 0,0
20.01.2021 02:00:00 8,1 5,7 6,9 5,2 16 9 25 13 ENE 1018,4 0 0,0
20.01.2021 01:00:00 7,4 4,0 6,7 5,2 9 5 17 9 ENE 1019,5 0 0,0
20.01.2021 00:00:00 7,6 4,2 5,6 5,2 8 4 15 8 NE 1020,2 0 0,0
19.01.2021 23:00:00 7,2 1,9 5,3 5,2 8 5 16 9 N 1020,8 0 0,0
19.01.2021 22:00:00 5,8 0,3 4,5 5,2 5 3 14 7 N 1021,1 0 0,0
19.01.2021 21:00:00 5,5 -1,0 2,8 5,3 11 6 15 8 NNW 1021,9 0 0,0
19.01.2021 20:00:00 3,5 -2,3 1,9 5,4 6 3 11 6 NNW 1022,0 0 0,0
19.01.2021 19:00:00 3,4 -2,0 2,1 5,5 7 4 9 5 NNW 1022,2 0 0,0
19.01.2021 18:00:00 5,7 -0,8 2,7 5,5 5 3 8 5 NW 1022,2 0 0,0
19.01.2021 17:00:00 9,4 -0,8 7,1 5,3 5 3 8 4 SE 1022,1 57 0,0
19.01.2021 16:00:00 10,8 -1,9 14,3 5,0 3 1 10 5 SSE 1022,4 60 0,0
19.01.2021 15:00:00 11,2 -1,6 15,0 4,6 4 2 10 6 SSE 1022,7 60 0,0
19.01.2021 14:00:00 10,7 -1,7 10,1 4,1 4 2 11 6 SSE 1023,3 60 0,0
19.01.2021 13:00:00 9,5 -1,6 9,4 3,7 4 2 11 6 SSE 1024,4 60 0,0
19.01.2021 12:00:00 8,6 -1,3 10,0 3,6 5 3 13 7 E 1025,4 60 0,0
19.01.2021 11:00:00 6,4 -1,3 6,0 3,6 3 1 6 4 SSE 1026,1 60 0,0
19.01.2021 10:00:00 4,2 -1,2 -1,6 3,7 0 0 4 2 N 1026,0 60 0,0
19.01.2021 09:00:00 -0,6 -2,8 -4,3 3,8 0 0 6 3 N 1025,8 25 0,0
19.01.2021 08:00:00 -2,1 -4,1 -4,8 4,0 3 2 8 5 E 1025,9 0 0,0
19.01.2021 07:00:00 -2,6 -4,5 -4,9 4,2 2 1 7 4 ENE 1026,1 0 0,0
19.01.2021 06:00:00 -0,7 -3,9 -4,6 4,3 3 2 16 9 W 1025,8 0 0,0
19.01.2021 05:00:00 -2,7 -5,0 -4,5 4,5 5 3 8 5 ENE 1026,2 0 0,0
19.01.2021 04:00:00 -0,3 -3,5 -3,9 4,7 4 2 11 6 NNW 1026,2 0 0,0
19.01.2021 03:00:00 -1,2 -3,6 -3,7 4,9 3 1 8 4 NW 1026,4 0 0,0
19.01.2021 02:00:00 1,4 -2,9 -2,4 5,0 4 2 13 7 NNW 1026,8 0 0,0
19.01.2021 01:00:00 2,4 -3,1 -1,1 5,2 5 3 18 10 N 1026,7 0 0,0
19.01.2021 00:00:00 4,3 -2,6 3,0 5,4 11 6 35 19 N 1026,9 0 0,0
18.01.2021 23:00:00 4,5 -2,6 3,3 5,5 14 8 31 17 N 1026,7 0 0,0
18.01.2021 22:00:00 4,9 -2,7 3,6 5,6 12 6 30 16 N 1027,1 0 0,0
18.01.2021 21:00:00 5,2 -2,6 3,3 5,8 8 4 20 11 NNE 1027,3 0 0,0
18.01.2021 20:00:00 5,6 -2,5 4,5 5,9 11 6 34 18 NNE 1026,9 0 0,0
18.01.2021 19:00:00 6,4 -2,2 3,7 6,0 19 10 36 19 N 1026,3 0 0,0
18.01.2021 18:00:00 6,3 -3,1 3,5 6,0 6 3 15 8 NNE 1026,3 0 0,0
18.01.2021 17:00:00 9,4 -2,9 8,1 5,9 10 6 34 18 N 1025,6 56 0,0
18.01.2021 16:00:00 10,6 -3,2 13,4 5,7 16 9 39 21 N 1025,3 60 0,0
18.01.2021 15:00:00 10,9 -3,2 13,6 5,4 22 12 47 25 NNW 1025,4 60 0,0
18.01.2021 14:00:00 10,7 -3,4 11,1 5,1 24 13 49 26 N 1025,7 60 0,0
18.01.2021 13:00:00 10,2 -2,8 10,6 4,8 25 14 54 29 N 1026,2 60 0,0
18.01.2021 12:00:00 10,0 -2,3 11,7 4,7 26 14 51 28 N 1026,8 60 0,0
18.01.2021 11:00:00 9,1 -1,9 10,1 4,6 22 12 50 27 N 1027,2 60 0,0
18.01.2021 10:00:00 7,8 -2,3 4,7 4,6 17 9 37 20 NNW 1027,0 60 0,0
18.01.2021 09:00:00 5,4 -2,4 3,1 4,7 13 7 29 15 NNW 1026,8 24 0,0
18.01.2021 08:00:00 4,7 -2,4 1,8 4,8 15 8 34 18 NNW 1026,6 0 0,0
18.01.2021 07:00:00 3,2 -2,3 2,3 4,9 12 6 31 17 N 1026,5 0 0,0

tt = Température de l'air
td = dewpoint
tt 5cm = Température de l'air 5cm
tt -20cm = Température de l'air -20cm
ff = Vitesse du vent
fx = gusts
dd = Direction du vent
ppp = reduced air pressure
sd = Ensoleillement
rr = Quantités de précipitations

stations d'obs. à proximité